createdAt,value
2023-03-18T00:00:52.185Z,1003.05
2023-03-18T00:01:52.189Z,1003.07
2023-03-18T00:02:52.258Z,1003.03
2023-03-18T00:03:52.311Z,1003.05
2023-03-18T00:04:52.261Z,1003.05
2023-03-18T00:05:52.282Z,1003.03
2023-03-18T00:06:52.317Z,1003.06
2023-03-18T00:07:52.339Z,1003.06
2023-03-18T00:08:52.364Z,1003.02
2023-03-18T00:09:52.381Z,1003.03
2023-03-18T00:10:52.413Z,1003.03
2023-03-18T00:11:52.429Z,1002.99
2023-03-18T00:12:52.453Z,1003.02
2023-03-18T00:13:52.482Z,1003.04
2023-03-18T00:14:52.502Z,1003.04
2023-03-18T00:15:52.538Z,1003.04
2023-03-18T00:16:52.546Z,1003.04
2023-03-18T00:17:59.811Z,1003.05
2023-03-18T00:19:57.075Z,1003.06
2023-03-18T00:20:56.604Z,1003.05
2023-03-18T00:23:00.618Z,1003.13
2023-03-18T00:24:00.638Z,1003.11
2023-03-18T00:26:05.124Z,1003.12
2023-03-18T00:27:04.658Z,1003.10
2023-03-18T00:28:57.610Z,1003.14
2023-03-18T00:29:57.605Z,1003.11
2023-03-18T00:32:02.229Z,1003.11
2023-03-18T00:33:01.752Z,1003.11
2023-03-18T00:35:05.656Z,1003.13
2023-03-18T00:36:05.711Z,1003.13
2023-03-18T00:38:10.160Z,1003.19
2023-03-18T00:39:09.684Z,1003.21
2023-03-18T00:41:13.707Z,1003.22
2023-03-18T00:42:13.719Z,1003.15
2023-03-18T00:44:18.209Z,1003.16
2023-03-18T00:45:17.741Z,1003.18
2023-03-18T00:47:21.776Z,1003.16
2023-03-18T00:48:21.781Z,1003.19
2023-03-18T00:50:26.774Z,1003.18
2023-03-18T00:51:25.816Z,1003.16
2023-03-18T00:53:29.827Z,1003.15
2023-03-18T00:54:29.840Z,1003.13
2023-03-18T00:56:34.335Z,1003.13
2023-03-18T00:57:33.894Z,1003.12
2023-03-18T00:59:37.879Z,1003.13
2023-03-18T01:00:37.941Z,1003.11
2023-03-18T01:02:42.400Z,1003.12
2023-03-18T01:03:41.917Z,1003.14
2023-03-18T01:05:45.953Z,1003.16
2023-03-18T01:06:45.945Z,1003.14
2023-03-18T01:08:39.432Z,1003.18
2023-03-18T01:09:38.905Z,1003.15
2023-03-18T01:11:42.919Z,1003.06
2023-03-18T01:12:42.924Z,1003.06
2023-03-18T01:14:47.919Z,1003.03
2023-03-18T01:15:46.951Z,1002.98
2023-03-18T01:17:50.978Z,1002.96
2023-03-18T01:18:50.981Z,1002.96
2023-03-18T01:20:55.469Z,1002.97
2023-03-18T01:21:55.011Z,1002.99
2023-03-18T01:23:59.022Z,1002.99
2023-03-18T01:24:59.044Z,1002.99
2023-03-18T01:27:03.530Z,1003.01
2023-03-18T01:28:03.062Z,1003.01
2023-03-18T01:30:07.079Z,1003.06
2023-03-18T01:31:07.087Z,1003.01
2023-03-18T01:32:07.177Z,1003.03
2023-03-18T01:33:07.216Z,1003.01
2023-03-18T01:34:07.159Z,1003.04
2023-03-18T01:35:07.180Z,1003.02
2023-03-18T01:36:07.236Z,1003.05
2023-03-18T01:37:07.226Z,1003.04
2023-03-18T01:38:07.242Z,1003.01
2023-03-18T01:39:07.276Z,1003.02
2023-03-18T01:40:07.291Z,1002.96
2023-03-18T01:41:07.319Z,1002.93
2023-03-18T01:42:07.347Z,1002.91
2023-03-18T01:43:07.358Z,1002.90
2023-03-18T01:44:07.380Z,1002.91
2023-03-18T01:45:07.404Z,1002.89
2023-03-18T01:46:07.512Z,1002.92
2023-03-18T01:47:07.456Z,1002.96
2023-03-18T01:48:07.473Z,1002.91
2023-03-18T01:49:07.500Z,1002.93
2023-03-18T01:50:07.521Z,1002.94
2023-03-18T01:51:07.542Z,1002.91
2023-03-18T01:52:07.569Z,1002.91
2023-03-18T01:53:07.596Z,1002.97
2023-03-18T01:54:07.626Z,1002.92
2023-03-18T01:55:07.642Z,1002.92
2023-03-18T01:56:07.658Z,1002.89
2023-03-18T01:57:07.680Z,1002.87
2023-03-18T01:58:07.704Z,1002.91
2023-03-18T01:59:07.728Z,1002.94
2023-03-18T02:00:07.759Z,1002.98
2023-03-18T02:01:07.813Z,1002.96
2023-03-18T02:02:07.796Z,1002.92
2023-03-18T02:03:07.822Z,1002.90
2023-03-18T02:04:07.851Z,1002.87
2023-03-18T02:05:07.887Z,1002.89
2023-03-18T02:06:07.891Z,1002.91
2023-03-18T02:07:08.008Z,1002.91
2023-03-18T02:08:07.939Z,1002.91
2023-03-18T02:09:07.964Z,1002.94
2023-03-18T02:10:29.057Z,1003.00
2023-03-18T02:11:08.020Z,1003.03
2023-03-18T02:12:08.036Z,1003.04
2023-03-18T02:13:08.054Z,1003.00
2023-03-18T02:14:08.083Z,1002.95
2023-03-18T02:15:08.120Z,1002.90
2023-03-18T02:16:08.129Z,1002.88
2023-03-18T02:17:08.150Z,1002.90
2023-03-18T02:18:08.172Z,1002.88
2023-03-18T02:19:08.200Z,1002.92
2023-03-18T02:20:08.224Z,1002.93
2023-03-18T02:21:08.391Z,1002.98
2023-03-18T02:22:08.267Z,1002.99
2023-03-18T02:23:08.288Z,1002.98
2023-03-18T02:24:08.313Z,1002.97
2023-03-18T02:25:08.336Z,1002.97
2023-03-18T02:26:08.364Z,1002.96
2023-03-18T02:27:08.378Z,1002.96
2023-03-18T02:28:08.418Z,1002.97
2023-03-18T02:29:08.428Z,1002.96
2023-03-18T02:30:08.452Z,1002.98
2023-03-18T02:31:08.541Z,1002.97
2023-03-18T02:32:08.503Z,1002.96
2023-03-18T02:33:08.554Z,1002.97
2023-03-18T02:34:08.567Z,1002.97
2023-03-18T02:35:08.567Z,1002.93
2023-03-18T02:36:08.593Z,1002.98
2023-03-18T02:37:08.614Z,1003.00
2023-03-18T02:38:08.639Z,1002.96
2023-03-18T02:39:08.662Z,1002.92
2023-03-18T02:40:08.684Z,1002.92
2023-03-18T02:41:08.709Z,1002.93
2023-03-18T02:42:08.725Z,1002.95
2023-03-18T02:43:08.752Z,1002.95
2023-03-18T02:44:08.781Z,1002.93
2023-03-18T02:45:08.797Z,1002.92
2023-03-18T02:46:08.910Z,1002.94
2023-03-18T02:47:08.848Z,1002.98
2023-03-18T02:48:08.868Z,1003.05
2023-03-18T02:49:08.893Z,1003.04
2023-03-18T02:50:08.916Z,1003.07
2023-03-18T02:51:09.019Z,1003.05
2023-03-18T02:52:08.962Z,1003.02
2023-03-18T02:53:08.991Z,1003.06
2023-03-18T02:54:09.012Z,1003.05
2023-03-18T02:55:09.030Z,1003.04
2023-03-18T02:56:09.056Z,1003.06
2023-03-18T02:57:09.082Z,1003.06
2023-03-18T02:58:09.105Z,1003.11
2023-03-18T02:59:09.129Z,1003.15
2023-03-18T03:00:09.149Z,1003.15
2023-03-18T03:01:09.210Z,1003.15
2023-03-18T03:02:09.237Z,1003.17
2023-03-18T03:03:09.402Z,1003.20
2023-03-18T03:04:09.245Z,1003.20
2023-03-18T03:05:09.265Z,1003.22
2023-03-18T03:06:09.289Z,1003.23
2023-03-18T03:07:09.310Z,1003.20
2023-03-18T03:08:09.332Z,1003.20
2023-03-18T03:09:09.359Z,1003.17
2023-03-18T03:10:09.380Z,1003.17
2023-03-18T03:11:09.402Z,1003.15
2023-03-18T03:12:09.435Z,1003.13
2023-03-18T03:13:09.449Z,1003.14
2023-03-18T03:14:09.507Z,1003.13
2023-03-18T03:15:09.499Z,1003.09
2023-03-18T03:16:09.562Z,1003.13
2023-03-18T03:17:09.543Z,1003.14
2023-03-18T03:18:09.561Z,1003.13
2023-03-18T03:19:09.585Z,1003.09
2023-03-18T03:20:09.615Z,1003.10
2023-03-18T03:21:09.626Z,1003.10
2023-03-18T03:22:09.655Z,1003.11
2023-03-18T03:23:09.679Z,1003.07
2023-03-18T03:24:09.697Z,1003.07
2023-03-18T03:25:09.723Z,1003.07
2023-03-18T03:26:09.747Z,1003.07
2023-03-18T03:27:09.768Z,1003.05
2023-03-18T03:28:09.803Z,1003.07
2023-03-18T03:29:09.816Z,1003.04
2023-03-18T03:30:09.837Z,1003.02
2023-03-18T03:31:09.897Z,1003.03
2023-03-18T03:32:09.884Z,1003.06
2023-03-18T03:33:09.907Z,1003.05
2023-03-18T03:34:09.928Z,1003.11
2023-03-18T03:35:09.950Z,1003.11
2023-03-18T03:36:10.026Z,1003.10
2023-03-18T03:37:10.003Z,1003.06
2023-03-18T03:38:10.020Z,1003.05
2023-03-18T03:39:10.044Z,1003.04
2023-03-18T03:40:10.068Z,1003.05
2023-03-18T03:41:10.089Z,1003.07
2023-03-18T03:42:10.111Z,1003.08
2023-03-18T03:43:10.130Z,1003.05
2023-03-18T03:44:10.153Z,1003.04
2023-03-18T03:45:10.179Z,1003.06
2023-03-18T03:46:10.240Z,1003.11
2023-03-18T03:47:10.223Z,1003.12
2023-03-18T03:48:10.246Z,1003.14
2023-03-18T03:49:10.267Z,1003.13
2023-03-18T03:50:10.293Z,1003.17
2023-03-18T03:51:10.312Z,1003.17
2023-03-18T03:52:10.335Z,1003.13
2023-03-18T03:53:10.367Z,1003.14
2023-03-18T03:54:10.411Z,1003.14
2023-03-18T03:55:10.400Z,1003.12
2023-03-18T03:56:10.422Z,1003.15
2023-03-18T03:57:10.442Z,1003.16
2023-03-18T03:58:10.469Z,1003.11
2023-03-18T03:59:10.488Z,1003.10
2023-03-18T04:00:10.510Z,1003.10
2023-03-18T04:01:10.533Z,1003.11
2023-03-18T04:02:10.555Z,1003.09
2023-03-18T04:03:10.604Z,1003.10
2023-03-18T04:04:10.634Z,1003.10
2023-03-18T04:05:10.620Z,1003.11
2023-03-18T04:06:10.643Z,1003.08
2023-03-18T04:07:10.667Z,1003.10
2023-03-18T04:08:10.692Z,1003.09
2023-03-18T04:09:10.709Z,1003.08
2023-03-18T04:10:10.735Z,1003.10
2023-03-18T04:11:10.762Z,1003.12
2023-03-18T04:12:10.777Z,1003.16
2023-03-18T04:13:10.800Z,1003.19
2023-03-18T04:14:10.832Z,1003.20
2023-03-18T04:15:10.847Z,1003.20
2023-03-18T04:16:10.911Z,1003.27
2023-03-18T04:17:10.899Z,1003.27
2023-03-18T04:18:10.911Z,1003.33
2023-03-18T04:19:10.929Z,1003.35
2023-03-18T04:20:10.967Z,1003.39
2023-03-18T04:21:10.974Z,1003.42
2023-03-18T04:22:11.002Z,1003.45
2023-03-18T04:23:11.024Z,1003.46
2023-03-18T04:24:11.044Z,1003.47
2023-03-18T04:25:11.082Z,1003.46
2023-03-18T04:26:11.088Z,1003.46
2023-03-18T04:27:11.108Z,1003.50
2023-03-18T04:28:11.132Z,1003.52
2023-03-18T04:29:11.160Z,1003.57
2023-03-18T04:30:11.210Z,1003.56
2023-03-18T04:31:11.281Z,1003.56
2023-03-18T04:32:11.225Z,1003.55
2023-03-18T04:33:11.342Z,1003.58
2023-03-18T04:34:11.262Z,1003.57
2023-03-18T04:35:11.283Z,1003.58
2023-03-18T04:36:11.396Z,1003.61
2023-03-18T04:37:11.331Z,1003.58
2023-03-18T04:38:11.355Z,1003.61
2023-03-18T04:39:11.375Z,1003.64
2023-03-18T04:40:11.402Z,1003.65
2023-03-18T04:41:11.420Z,1003.61
2023-03-18T04:42:11.441Z,1003.61
2023-03-18T04:43:11.464Z,1003.60
2023-03-18T04:44:11.489Z,1003.58
2023-03-18T04:45:11.514Z,1003.55
2023-03-18T04:46:11.550Z,1003.56
2023-03-18T04:47:11.560Z,1003.54
2023-03-18T04:48:11.577Z,1003.57
2023-03-18T04:49:11.597Z,1003.56
2023-03-18T04:50:11.622Z,1003.59
2023-03-18T04:51:11.643Z,1003.61
2023-03-18T04:52:11.664Z,1003.60
2023-03-18T04:53:11.687Z,1003.64
2023-03-18T04:54:11.712Z,1003.64
2023-03-18T04:55:11.731Z,1003.65
2023-03-18T04:56:11.756Z,1003.67
2023-03-18T04:57:11.783Z,1003.65
2023-03-18T04:58:11.800Z,1003.69
2023-03-18T04:59:11.819Z,1003.69
2023-03-18T05:00:11.871Z,1003.70
2023-03-18T05:01:11.943Z,1003.67
2023-03-18T05:02:11.891Z,1003.68
2023-03-18T05:03:11.911Z,1003.68
2023-03-18T05:04:11.990Z,1003.70
2023-03-18T05:05:11.954Z,1003.74
2023-03-18T05:06:11.978Z,1003.74
2023-03-18T05:07:11.998Z,1003.72
2023-03-18T05:08:12.025Z,1003.71
2023-03-18T05:09:12.047Z,1003.71
2023-03-18T05:10:12.068Z,1003.70
2023-03-18T05:11:12.087Z,1003.69
2023-03-18T05:12:12.115Z,1003.66
2023-03-18T05:13:12.141Z,1003.67
2023-03-18T05:14:12.189Z,1003.59
2023-03-18T05:15:12.234Z,1003.61
2023-03-18T05:16:12.259Z,1003.63
2023-03-18T05:17:12.235Z,1003.65
2023-03-18T05:18:12.248Z,1003.63
2023-03-18T05:19:12.266Z,1003.62
2023-03-18T05:20:12.297Z,1003.62
2023-03-18T05:21:12.318Z,1003.65
2023-03-18T05:22:12.337Z,1003.64
2023-03-18T05:23:12.359Z,1003.65
2023-03-18T05:24:12.385Z,1003.63
2023-03-18T05:25:12.423Z,1003.66
2023-03-18T05:26:12.437Z,1003.65
2023-03-18T05:27:12.502Z,1003.64
2023-03-18T05:28:12.487Z,1003.63
2023-03-18T05:29:12.495Z,1003.67
2023-03-18T05:30:12.519Z,1003.64
2023-03-18T05:31:12.558Z,1003.70
2023-03-18T05:32:12.570Z,1003.69
2023-03-18T05:33:12.701Z,1003.72
2023-03-18T05:34:12.612Z,1003.75
2023-03-18T05:35:12.628Z,1003.78
2023-03-18T05:36:12.740Z,1003.77
2023-03-18T05:37:12.679Z,1003.79
2023-03-18T05:38:12.691Z,1003.82
2023-03-18T05:39:12.716Z,1003.81
2023-03-18T05:40:12.754Z,1003.82
2023-03-18T05:41:12.765Z,1003.81
2023-03-18T05:42:12.783Z,1003.81
2023-03-18T05:43:12.809Z,1003.80
2023-03-18T05:44:12.828Z,1003.80
2023-03-18T05:45:12.849Z,1003.80
2023-03-18T05:46:12.981Z,1003.83
2023-03-18T05:47:12.893Z,1003.83
2023-03-18T05:48:12.916Z,1003.88
2023-03-18T05:49:12.937Z,1003.82
2023-03-18T05:50:12.958Z,1003.85
2023-03-18T05:51:12.982Z,1003.85
2023-03-18T05:52:13.017Z,1003.83
2023-03-18T05:53:13.028Z,1003.81
2023-03-18T05:54:13.045Z,1003.87
2023-03-18T05:55:13.070Z,1003.86
2023-03-18T05:56:13.092Z,1003.88
2023-03-18T05:57:13.117Z,1003.88
2023-03-18T05:58:13.142Z,1003.86
2023-03-18T05:59:13.161Z,1003.91
2023-03-18T06:00:13.190Z,1003.90
2023-03-18T06:01:13.207Z,1003.91
2023-03-18T06:02:13.326Z,1003.94
2023-03-18T06:03:13.277Z,1003.93
2023-03-18T06:04:13.281Z,1003.92
2023-03-18T06:05:13.296Z,1003.94
2023-03-18T06:06:13.318Z,1003.92
2023-03-18T06:07:13.347Z,1003.94
2023-03-18T06:08:13.364Z,1003.94
2023-03-18T06:09:13.387Z,1003.95
2023-03-18T06:10:13.408Z,1003.97
2023-03-18T06:11:13.436Z,1003.96
2023-03-18T06:12:13.455Z,1003.98
2023-03-18T06:13:13.477Z,1004.02
2023-03-18T06:14:13.500Z,1004.01
2023-03-18T06:15:13.521Z,1004.02
2023-03-18T06:16:13.574Z,1004.00
2023-03-18T06:17:13.597Z,1004.06
2023-03-18T06:18:13.592Z,1004.04
2023-03-18T06:19:13.614Z,1004.03
2023-03-18T06:20:13.633Z,1004.04
2023-03-18T06:21:13.675Z,1004.08
2023-03-18T06:22:13.690Z,1004.10
2023-03-18T06:23:13.704Z,1004.12
2023-03-18T06:24:13.739Z,1004.08
2023-03-18T06:25:13.747Z,1004.11
2023-03-18T06:26:13.773Z,1004.10
2023-03-18T06:27:13.790Z,1004.09
2023-03-18T06:28:13.822Z,1004.08
2023-03-18T06:29:13.836Z,1004.11
2023-03-18T06:30:13.858Z,1004.13
2023-03-18T06:31:13.952Z,1004.14
2023-03-18T06:32:13.905Z,1004.14
2023-03-18T06:33:13.930Z,1004.18
2023-03-18T06:34:13.954Z,1004.18
2023-03-18T06:35:13.973Z,1004.21
2023-03-18T06:36:14.015Z,1004.22
2023-03-18T06:37:14.014Z,1004.28
2023-03-18T06:38:14.042Z,1004.32
2023-03-18T06:39:14.073Z,1004.33
2023-03-18T06:40:14.085Z,1004.33
2023-03-18T06:41:14.121Z,1004.32
2023-03-18T06:42:14.132Z,1004.31
2023-03-18T06:43:14.150Z,1004.32
2023-03-18T06:44:14.172Z,1004.30
2023-03-18T06:45:14.201Z,1004.34
2023-03-18T06:46:14.255Z,1004.34
2023-03-18T06:47:14.241Z,1004.30
2023-03-18T06:48:14.266Z,1004.29
2023-03-18T06:49:14.289Z,1004.30
2023-03-18T06:50:14.311Z,1004.30
2023-03-18T06:51:14.336Z,1004.32
2023-03-18T06:52:14.354Z,1004.36
2023-03-18T06:53:14.384Z,1004.36
2023-03-18T06:54:14.404Z,1004.40
2023-03-18T06:55:14.426Z,1004.38
2023-03-18T06:56:14.450Z,1004.38
2023-03-18T06:57:14.475Z,1004.40
2023-03-18T06:58:14.501Z,1004.41
2023-03-18T06:59:14.516Z,1004.40
2023-03-18T07:00:14.546Z,1004.43
2023-03-18T07:01:14.621Z,1004.41
2023-03-18T07:02:14.588Z,1004.39
2023-03-18T07:03:14.611Z,1004.45
2023-03-18T07:04:14.687Z,1004.40
2023-03-18T07:05:14.668Z,1004.42
2023-03-18T07:06:14.683Z,1004.42
2023-03-18T07:07:14.800Z,1004.44
2023-03-18T07:08:14.727Z,1004.42
2023-03-18T07:09:14.752Z,1004.43
2023-03-18T07:10:14.778Z,1004.47
2023-03-18T07:11:14.798Z,1004.46
2023-03-18T07:12:14.828Z,1004.45
2023-03-18T07:13:14.846Z,1004.50
2023-03-18T07:14:14.869Z,1004.47
2023-03-18T07:15:14.892Z,1004.48
2023-03-18T07:16:14.926Z,1004.51
2023-03-18T07:17:14.937Z,1004.57
2023-03-18T07:18:14.979Z,1004.58
2023-03-18T07:19:14.996Z,1004.57
2023-03-18T07:20:15.079Z,1004.62
2023-03-18T07:21:15.038Z,1004.60
2023-03-18T07:22:15.058Z,1004.59
2023-03-18T07:23:15.086Z,1004.60
2023-03-18T07:24:15.107Z,1004.62
2023-03-18T07:25:15.160Z,1004.66
2023-03-18T07:26:15.156Z,1004.64
2023-03-18T07:27:15.183Z,1004.67
2023-03-18T07:28:15.208Z,1004.67
2023-03-18T07:29:15.228Z,1004.67
2023-03-18T07:30:15.260Z,1004.69
2023-03-18T07:31:15.349Z,1004.67
2023-03-18T07:32:15.305Z,1004.71
2023-03-18T07:33:15.328Z,1004.75
2023-03-18T07:34:15.350Z,1004.75
2023-03-18T07:35:15.380Z,1004.76
2023-03-18T07:36:15.471Z,1004.72
2023-03-18T07:37:15.423Z,1004.74
2023-03-18T07:38:15.447Z,1004.75
2023-03-18T07:39:15.473Z,1004.75
2023-03-18T07:40:15.493Z,1004.80
2023-03-18T07:41:15.523Z,1004.79
2023-03-18T07:42:15.545Z,1004.83
2023-03-18T07:43:15.567Z,1004.82
2023-03-18T07:44:15.594Z,1004.88
2023-03-18T07:45:15.614Z,1004.90
2023-03-18T07:46:15.672Z,1004.93
2023-03-18T07:47:15.669Z,1004.95
2023-03-18T07:48:15.699Z,1004.93
2023-03-18T07:49:15.733Z,1004.96
2023-03-18T07:50:15.738Z,1004.94
2023-03-18T07:51:15.767Z,1004.97
2023-03-18T07:52:15.787Z,1004.96
2023-03-18T07:53:16.832Z,1004.97
2023-03-18T07:54:15.845Z,1004.97
2023-03-18T07:55:15.861Z,1005.00
2023-03-18T07:56:15.884Z,1005.06
2023-03-18T07:57:16.004Z,1005.02
2023-03-18T07:58:15.935Z,1005.04
2023-03-18T07:59:18.286Z,1005.04
2023-03-18T08:00:16.007Z,1005.06
2023-03-18T08:01:16.535Z,1005.07
2023-03-18T08:02:16.053Z,1005.07
2023-03-18T08:03:16.061Z,1005.07
2023-03-18T08:04:16.234Z,1005.09
2023-03-18T08:05:16.233Z,1005.09
2023-03-18T08:06:16.128Z,1005.12
2023-03-18T08:07:16.178Z,1005.11
2023-03-18T08:08:16.202Z,1005.07
2023-03-18T08:09:16.222Z,1005.09
2023-03-18T08:10:16.233Z,1005.07
2023-03-18T08:11:16.308Z,1005.05
2023-03-18T08:12:18.707Z,1005.07
2023-03-18T08:13:16.325Z,1005.08
2023-03-18T08:14:16.324Z,1005.14
2023-03-18T08:15:16.355Z,1005.13
2023-03-18T08:16:16.416Z,1005.12
2023-03-18T08:17:16.398Z,1005.17
2023-03-18T08:18:16.430Z,1005.14
2023-03-18T08:19:16.454Z,1005.17
2023-03-18T08:20:16.478Z,1005.14
2023-03-18T08:21:16.500Z,1005.15
2023-03-18T08:22:16.524Z,1005.16
2023-03-18T08:23:16.576Z,1005.18
2023-03-18T08:24:16.572Z,1005.21
2023-03-18T08:25:16.594Z,1005.21
2023-03-18T08:26:16.622Z,1005.21
2023-03-18T08:27:16.655Z,1005.27
2023-03-18T08:28:16.708Z,1005.26
2023-03-18T08:29:16.695Z,1005.30
2023-03-18T08:30:16.723Z,1005.31
2023-03-18T08:31:16.766Z,1005.28
2023-03-18T08:32:16.782Z,1005.28
2023-03-18T08:33:16.810Z,1005.33
2023-03-18T08:34:16.841Z,1005.30
2023-03-18T08:35:16.844Z,1005.32
2023-03-18T08:36:16.868Z,1005.30
2023-03-18T08:37:16.896Z,1005.33
2023-03-18T08:38:16.924Z,1005.34
2023-03-18T08:39:16.945Z,1005.34
2023-03-18T08:40:16.972Z,1005.39
2023-03-18T08:41:17.011Z,1005.38
2023-03-18T08:42:17.028Z,1005.38
2023-03-18T08:43:17.048Z,1005.38
2023-03-18T08:44:17.072Z,1005.40
2023-03-18T08:45:17.117Z,1005.40
2023-03-18T08:46:17.191Z,1005.37
2023-03-18T08:47:17.160Z,1005.40
2023-03-18T08:48:17.176Z,1005.41
2023-03-18T08:49:17.203Z,1005.36
2023-03-18T08:50:17.227Z,1005.42
2023-03-18T08:51:17.252Z,1005.42
2023-03-18T08:52:17.280Z,1005.40
2023-03-18T08:53:17.308Z,1005.41
2023-03-18T08:54:17.331Z,1005.45
2023-03-18T08:55:17.355Z,1005.41
2023-03-18T08:56:17.384Z,1005.46
2023-03-18T08:57:17.413Z,1005.49
2023-03-18T08:58:17.434Z,1005.52
2023-03-18T08:59:17.460Z,1005.52
2023-03-18T09:00:17.544Z,1005.46
2023-03-18T09:01:17.605Z,1005.53
2023-03-18T09:02:17.608Z,1005.54
2023-03-18T09:03:17.578Z,1005.55
2023-03-18T09:04:17.596Z,1005.60
2023-03-18T09:05:17.621Z,1005.58
2023-03-18T09:06:17.644Z,1005.66
2023-03-18T09:07:19.101Z,1005.60
2023-03-18T09:08:17.694Z,1005.65
2023-03-18T09:09:17.729Z,1005.68
2023-03-18T09:10:17.762Z,1005.66
2023-03-18T09:11:17.776Z,1005.70
2023-03-18T09:12:17.805Z,1005.68
2023-03-18T09:13:17.835Z,1005.67
2023-03-18T09:14:17.854Z,1005.65
2023-03-18T09:15:17.877Z,1005.66
2023-03-18T09:16:17.973Z,1005.68
2023-03-18T09:17:17.946Z,1005.67
2023-03-18T09:18:17.969Z,1005.66
2023-03-18T09:19:17.980Z,1005.66
2023-03-18T09:20:18.021Z,1005.64
2023-03-18T09:21:18.036Z,1005.65
2023-03-18T09:22:18.068Z,1005.62
2023-03-18T09:23:18.088Z,1005.69
2023-03-18T09:24:18.122Z,1005.67
2023-03-18T09:25:18.149Z,1005.68
2023-03-18T09:26:18.168Z,1005.68
2023-03-18T09:27:18.192Z,1005.67
2023-03-18T09:28:18.217Z,1005.72
2023-03-18T09:29:18.257Z,1005.72
2023-03-18T09:30:18.272Z,1005.71
2023-03-18T09:31:18.364Z,1005.71
2023-03-18T09:32:18.336Z,1005.71
2023-03-18T09:33:18.354Z,1005.73
2023-03-18T09:34:18.380Z,1005.73
2023-03-18T09:35:18.406Z,1005.74
2023-03-18T09:36:18.431Z,1005.72
2023-03-18T09:37:18.461Z,1005.74
2023-03-18T09:38:18.484Z,1005.77
2023-03-18T09:39:18.513Z,1005.74
2023-03-18T09:40:18.538Z,1005.76
2023-03-18T09:41:18.566Z,1005.77
2023-03-18T09:42:18.593Z,1005.79
2023-03-18T09:43:18.617Z,1005.84
2023-03-18T09:44:18.645Z,1005.81
2023-03-18T09:45:18.684Z,1005.85
2023-03-18T09:46:18.863Z,1005.85
2023-03-18T09:47:18.977Z,1005.90
2023-03-18T09:48:19.650Z,1005.90
2023-03-18T09:49:18.776Z,1005.85
2023-03-18T09:50:18.801Z,1005.93
2023-03-18T09:51:19.368Z,1005.93
2023-03-18T09:52:18.862Z,1005.93
2023-03-18T09:53:18.881Z,1005.94
2023-03-18T09:54:18.907Z,1005.96
2023-03-18T09:55:18.940Z,1005.91
2023-03-18T09:56:18.958Z,1005.94
2023-03-18T09:57:18.987Z,1005.97
2023-03-18T09:58:19.039Z,1005.98
2023-03-18T09:59:19.043Z,1006.01
2023-03-18T10:00:19.065Z,1006.02
2023-03-18T10:01:19.132Z,1005.98
2023-03-18T10:02:19.120Z,1005.98
2023-03-18T10:03:19.146Z,1006.02
2023-03-18T10:04:19.207Z,1006.01
2023-03-18T10:05:19.196Z,1006.00
2023-03-18T10:06:19.222Z,1006.03
2023-03-18T10:07:19.249Z,1005.99
2023-03-18T10:08:19.277Z,1006.01
2023-03-18T10:09:19.305Z,1006.00
2023-03-18T10:10:19.329Z,1005.97
2023-03-18T10:11:19.360Z,1005.98
2023-03-18T10:12:19.385Z,1005.99
2023-03-18T10:13:19.411Z,1006.00
2023-03-18T10:14:19.436Z,1006.00
2023-03-18T10:15:19.473Z,1006.01
2023-03-18T10:16:19.563Z,1006.01
2023-03-18T10:17:19.531Z,1006.03
2023-03-18T10:18:19.552Z,1006.05
2023-03-18T10:19:19.567Z,1006.08
2023-03-18T10:20:19.595Z,1006.06
2023-03-18T10:21:19.634Z,1006.08
2023-03-18T10:22:19.657Z,1006.07
2023-03-18T10:23:19.679Z,1006.03
2023-03-18T10:24:19.706Z,1006.07
2023-03-18T10:25:21.258Z,1006.06
2023-03-18T10:26:19.771Z,1006.06
2023-03-18T10:27:19.790Z,1006.07
2023-03-18T10:28:19.934Z,1006.04
2023-03-18T10:29:19.851Z,1006.06
2023-03-18T10:30:19.875Z,1006.07
2023-03-18T10:31:20.014Z,1006.09
2023-03-18T10:32:19.933Z,1006.08
2023-03-18T10:33:20.042Z,1006.10
2023-03-18T10:34:19.987Z,1006.10
2023-03-18T10:35:20.020Z,1006.11
2023-03-18T10:36:20.086Z,1006.10
2023-03-18T10:37:20.073Z,1006.15
2023-03-18T10:38:20.098Z,1006.12
2023-03-18T10:39:20.133Z,1006.10
2023-03-18T10:40:20.171Z,1006.13
2023-03-18T10:41:22.033Z,1006.15
2023-03-18T10:42:20.218Z,1006.16
2023-03-18T10:43:20.242Z,1006.16
2023-03-18T10:44:20.272Z,1006.16
2023-03-18T10:45:20.306Z,1006.18
2023-03-18T10:46:20.426Z,1006.15
2023-03-18T10:47:20.434Z,1006.17
2023-03-18T10:48:20.409Z,1006.14
2023-03-18T10:49:20.423Z,1006.18
2023-03-18T10:50:20.442Z,1006.12
2023-03-18T10:51:20.471Z,1006.15
2023-03-18T10:52:20.498Z,1006.11
2023-03-18T10:53:20.523Z,1006.14
2023-03-18T10:54:20.556Z,1006.13
2023-03-18T10:55:20.591Z,1006.14
2023-03-18T10:56:20.612Z,1006.14
2023-03-18T10:57:20.639Z,1006.10
2023-03-18T10:58:20.667Z,1006.13
2023-03-18T10:59:20.695Z,1006.13
2023-03-18T11:00:20.724Z,1006.19
2023-03-18T11:01:22.866Z,1006.18
2023-03-18T11:02:20.853Z,1006.16
2023-03-18T11:03:20.804Z,1006.11
2023-03-18T11:04:20.841Z,1006.12
2023-03-18T11:05:20.902Z,1006.15
2023-03-18T11:06:20.919Z,1006.13
2023-03-18T11:07:20.928Z,1006.13
2023-03-18T11:08:20.951Z,1006.15
2023-03-18T11:09:20.982Z,1006.13
2023-03-18T11:10:21.215Z,1006.16
2023-03-18T11:11:21.052Z,1006.15
2023-03-18T11:12:21.703Z,1006.13
2023-03-18T11:13:21.173Z,1006.12
2023-03-18T11:14:21.147Z,1006.14
2023-03-18T11:15:21.160Z,1006.16
2023-03-18T11:16:21.207Z,1006.14
2023-03-18T11:17:21.209Z,1006.13
2023-03-18T11:18:21.234Z,1006.09
2023-03-18T11:19:21.263Z,1006.08
2023-03-18T11:20:21.293Z,1006.13
2023-03-18T11:21:21.319Z,1006.11
2023-03-18T11:22:21.348Z,1006.08
2023-03-18T11:23:21.379Z,1006.08
2023-03-18T11:24:21.403Z,1006.05
2023-03-18T11:25:21.436Z,1006.05
2023-03-18T11:26:21.462Z,1006.08
2023-03-18T11:27:21.488Z,1006.03
2023-03-18T11:28:21.517Z,1006.10
2023-03-18T11:29:21.552Z,1006.06
2023-03-18T11:30:39.068Z,1006.11
2023-03-18T11:31:21.680Z,1006.10
2023-03-18T11:32:21.639Z,1006.09
2023-03-18T11:33:21.675Z,1006.07
2023-03-18T11:34:21.710Z,1006.07
2023-03-18T11:35:21.796Z,1006.10
2023-03-18T11:36:21.743Z,1006.06
2023-03-18T11:37:23.797Z,1006.14
2023-03-18T11:38:21.801Z,1006.12
2023-03-18T11:39:21.825Z,1006.13
2023-03-18T11:40:21.854Z,1006.16
2023-03-18T11:41:21.879Z,1006.13
2023-03-18T11:42:22.025Z,1006.12
2023-03-18T11:43:21.941Z,1006.12
2023-03-18T11:44:21.964Z,1006.10
2023-03-18T11:45:21.993Z,1006.10
2023-03-18T11:46:22.062Z,1006.09
2023-03-18T11:47:22.060Z,1006.11
2023-03-18T11:48:22.078Z,1006.09
2023-03-18T11:49:22.105Z,1006.05
2023-03-18T11:50:22.139Z,1006.04
2023-03-18T11:51:22.162Z,1006.06
2023-03-18T11:52:22.193Z,1006.00
2023-03-18T11:53:22.220Z,1006.05
2023-03-18T11:54:22.250Z,1005.99
2023-03-18T11:55:22.281Z,1006.01
2023-03-18T11:56:22.307Z,1005.99
2023-03-18T11:57:22.335Z,1005.97
2023-03-18T11:58:22.366Z,1005.98
2023-03-18T11:59:22.402Z,1005.94
2023-03-18T12:00:22.425Z,1005.91
2023-03-18T12:01:22.451Z,1005.93
2023-03-18T12:02:22.544Z,1005.90
2023-03-18T12:03:22.512Z,1005.90
2023-03-18T12:04:22.539Z,1005.87
2023-03-18T12:05:22.634Z,1005.90
2023-03-18T12:06:22.600Z,1005.90
2023-03-18T12:07:22.625Z,1005.89
2023-03-18T12:08:22.653Z,1005.92
2023-03-18T12:09:22.685Z,1005.87
2023-03-18T12:10:22.735Z,1005.90
2023-03-18T12:11:22.741Z,1005.88
2023-03-18T12:12:22.775Z,1005.89
2023-03-18T12:13:22.798Z,1005.86
2023-03-18T12:14:22.826Z,1005.86
2023-03-18T12:15:22.858Z,1005.86
2023-03-18T12:16:22.918Z,1005.80
2023-03-18T12:17:22.933Z,1005.82
2023-03-18T12:18:22.940Z,1005.80
2023-03-18T12:19:22.977Z,1005.82
2023-03-18T12:20:23.001Z,1005.87
2023-03-18T12:21:23.027Z,1005.88
2023-03-18T12:22:23.054Z,1005.90
2023-03-18T12:23:23.086Z,1005.93
2023-03-18T12:24:23.116Z,1005.87
2023-03-18T12:25:23.139Z,1005.87
2023-03-18T12:26:23.188Z,1005.86
2023-03-18T12:27:23.197Z,1005.83
2023-03-18T12:28:23.226Z,1005.85
2023-03-18T12:29:23.251Z,1005.83
2023-03-18T12:30:23.284Z,1005.78
2023-03-18T12:31:23.341Z,1005.78